Time;durP1;ratioP1;P1;durP2;ratioP2;P2;SDS_P1;SDS_P2;PMS_P1;PMS_P2;Temp;Humidity;BMP_temperature;BMP_pressure;BME280_temperature;BME280_humidity;BME280_pressure;Samples;Min_cycle;Max_cycle;Signal;HPM_P1;HPM_P2
2021/10/10 00:00:35;;;;;;;5.00;4.10;;;;;;;7.25;69.49;100018.53;5117028;27;43446;-85
2021/10/10 00:03:02;;;;;;;6.50;5.43;;;;;;;7.19;69.69;100014.28;5116848;27;41727;-86
2021/10/10 00:05:30;;;;;;;6.43;4.77;;;;;;;7.14;69.51;100007.44;5133691;27;39590;-86
2021/10/10 00:07:58;;;;;;;6.67;4.30;;;;;;;7.09;69.06;100017.25;5133841;27;40502;-86
2021/10/10 00:10:26;;;;;;;4.73;3.27;;;;;;;7.16;69.01;100024.06;5116311;27;41595;-86
2021/10/10 00:12:54;;;;;;;6.00;3.30;;;;;;;7.04;69.22;100008.63;5134078;27;42873;-84
2021/10/10 00:15:21;;;;;;;6.27;3.43;;;;;;;7.10;69.20;100024.25;5116819;27;39108;-85
2021/10/10 00:17:49;;;;;;;4.33;2.93;;;;;;;6.99;68.89;100007.91;5134012;27;42233;-85
2021/10/10 00:20:17;;;;;;;6.70;3.50;;;;;;;6.96;68.69;100015.88;5116585;27;41710;-85
2021/10/10 00:22:45;;;;;;;6.80;4.20;;;;;;;6.88;68.35;100015.25;5117349;27;41094;-85
2021/10/10 00:25:14;;;;;;;5.37;3.47;;;;;;;6.82;68.33;100009.25;5116621;27;38805;-85
2021/10/10 00:27:42;;;;;;;3.37;2.50;;;;;;;6.79;68.29;100009.34;5117464;27;41658;-86
2021/10/10 00:30:10;;;;;;;4.83;2.90;;;;;;;6.84;68.27;100031.13;5115500;27;41703;-84
2021/10/10 00:32:38;;;;;;;6.20;3.23;;;;;;;6.82;68.12;100026.81;5117091;27;42327;-85
2021/10/10 00:35:07;;;;;;;4.77;3.87;;;;;;;6.78;68.11;100026.06;5116838;27;38674;-86
2021/10/10 00:37:34;;;;;;;5.53;3.43;;;;;;;6.74;68.00;100031.44;5116183;27;41783;-86
2021/10/10 00:40:02;;;;;;;4.27;3.27;;;;;;;6.65;68.15;100026.44;5127221;27;41886;-87
2021/10/10 00:42:31;;;;;;;6.73;3.10;;;;;;;6.65;68.52;100026.44;5129033;27;41407;-85
2021/10/10 00:44:59;;;;;;;8.07;3.57;;;;;;;6.58;69.01;100012.56;5127505;27;38883;-85
2021/10/10 00:47:27;;;;;;;4.40;3.33;;;;;;;6.54;68.74;100010.09;5142522;27;40894;-84
2021/10/10 00:49:54;;;;;;;5.83;3.73;;;;;;;6.49;68.71;100003.19;5147019;27;42304;-84
2021/10/10 00:52:23;;;;;;;4.37;2.97;;;;;;;6.61;68.72;100030.91;5146954;27;41043;-85
2021/10/10 00:54:51;;;;;;;3.27;2.50;;;;;;;6.60;68.60;100038.84;5135087;27;39198;-85
2021/10/10 00:57:21;;;;;;;3.70;2.77;;;;;;;6.57;68.78;100029.25;5136033;27;40950;-85
2021/10/10 00:59:52;;;;;;;5.43;3.30;;;;;;;6.55;69.13;100025.84;5136129;27;41600;-85
2021/10/10 01:02:20;;;;;;;6.47;3.77;;;;;;;6.44;69.23;100012.09;5153225;27;42669;-83
2021/10/10 01:04:47;;;;;;;4.70;3.13;;;;;;;6.46;69.12;100020.81;5136749;27;38967;-84
2021/10/10 01:07:15;;;;;;;6.47;3.20;;;;;;;6.40;68.79;100015.72;5132503;27;41564;-84
2021/10/10 01:09:43;;;;;;;7.23;3.10;;;;;;;6.38;68.90;100012.25;5133290;27;41704;-85
2021/10/10 01:12:11;;;;;;;5.10;3.10;;;;;;;6.35;68.88;100007.09;5132156;27;42163;-85
2021/10/10 01:14:38;;;;;;;5.23;3.60;;;;;;;6.35;68.92;100007.94;5134046;27;39419;-85
2021/10/10 01:17:07;;;;;;;5.67;3.00;;;;;;;6.33;68.93;100014.16;5150123;27;41836;-86
2021/10/10 01:19:37;;;;;;;9.57;4.10;;;;;;;6.29;69.28;100005.50;5133475;27;42051;-85
2021/10/10 01:22:06;;;;;;;4.77;2.67;;;;;;;6.32;69.67;100009.78;5132869;27;41278;-85
2021/10/10 01:24:34;;;;;;;5.90;3.53;;;;;;;6.37;69.69;100021.06;5133715;27;38842;-84
2021/10/10 01:27:03;;;;;;;6.53;2.50;;;;;;;6.25;69.91;100000.34;5133510;27;40476;-85
2021/10/10 01:29:30;;;;;;;7.37;4.30;;;;;;;6.28;69.75;100009.03;5132748;27;41930;-84
2021/10/10 01:31:58;;;;;;;5.90;3.20;;;;;;;6.32;69.46;100022.94;5133508;27;40776;-84
2021/10/10 01:34:25;;;;;;;5.43;2.40;;;;;;;6.22;69.11;100011.81;5132493;27;39212;-84
2021/10/10 01:36:53;;;;;;;3.97;2.73;;;;;;;6.25;69.22;100027.50;5133845;27;40945;-85
2021/10/10 01:39:22;;;;;;;3.87;2.43;;;;;;;6.10;69.28;100002.47;5132567;27;41378;-85
2021/10/10 01:41:50;;;;;;;5.90;3.53;;;;;;;6.12;69.30;100011.19;5115728;27;43205;-85
2021/10/10 01:44:18;;;;;;;6.17;3.57;;;;;;;6.17;69.85;100013.72;5137071;27;38910;-85
2021/10/10 01:46:46;;;;;;;3.73;3.17;;;;;;;6.05;69.60;99996.47;5136603;27;41160;-85
2021/10/10 01:49:13;;;;;;;10.77;3.80;;;;;;;6.04;69.55;99993.88;5119550;27;42542;-86
2021/10/10 01:51:42;;;;;;;4.17;2.10;;;;;;;6.03;69.80;99989.53;5117577;27;41378;-86
2021/10/10 01:54:09;;;;;;;3.57;2.47;;;;;;;6.02;69.53;99987.81;5123811;27;39211;-84
2021/10/10 01:56:38;;;;;;;6.10;3.20;;;;;;;6.00;69.89;99985.22;5139445;27;40854;-84
2021/10/10 01:59:06;;;;;;;2.83;2.13;;;;;;;6.12;70.02;100003.31;5138814;27;43013;-84
2021/10/10 02:01:33;;;;;;;3.80;3.00;;;;;;;6.03;70.17;99987.75;5156941;27;41595;-85
2021/10/10 02:04:02;;;;;;;4.77;2.83;;;;;;;6.04;69.95;99991.25;5139290;27;40186;-83
2021/10/10 02:06:29;;;;;;;5.13;3.53;;;;;;;6.02;69.62;99991.28;5136813;27;40762;-84
2021/10/10 02:08:57;;;;;;;4.97;3.27;;;;;;;6.09;69.53;100006.00;5130606;27;41663;-84
2021/10/10 02:11:24;;;;;;;3.83;2.50;;;;;;;6.03;69.40;99997.41;5152539;27;42676;-83
2021/10/10 02:13:53;;;;;;;2.90;1.90;;;;;;;6.03;69.37;99994.78;5141214;27;38865;-84
2021/10/10 02:16:21;;;;;;;3.37;2.57;;;;;;;5.90;69.28;99978.47;5158297;27;40416;-85
2021/10/10 02:18:49;;;;;;;2.73;2.30;;;;;;;5.95;69.13;99986.22;5143561;27;42648;-86
2021/10/10 02:21:16;;;;;;;4.53;2.70;;;;;;;5.86;69.84;99987.28;5142972;27;41384;-86
2021/10/10 02:23:44;;;;;;;5.13;3.03;;;;;;;5.97;69.50;100000.19;5142515;27;38536;-86
2021/10/10 02:26:12;;;;;;;5.10;3.80;;;;;;;5.82;69.88;99985.63;5161417;27;41965;-85
2021/10/10 02:28:39;;;;;;;4.83;3.40;;;;;;;5.87;69.78;99982.91;5143771;27;43141;-86
2021/10/10 02:31:08;;;;;;;6.00;3.83;;;;;;;5.80;69.83;99971.69;5160822;27;43525;-88
2021/10/10 02:33:36;;;;;;;6.33;3.13;;;;;;;5.74;69.63;99970.06;5142676;27;39025;-85
2021/10/10 02:36:04;;;;;;;5.27;2.73;;;;;;;5.84;69.93;99985.59;5143402;27;42144;-86
2021/10/10 02:38:32;;;;;;;3.80;2.90;;;;;;;5.78;69.55;99994.50;5142568;27;41545;-85
2021/10/10 08:55:38;;;;;;;3.43;3.13;;;;;;;24.96;29.62;100104.34;5143170;27;20496;-85
2021/10/10 08:58:14;;;;;;;4.23;3.17;;;;;;;26.72;26.51;100158.81;5107905;27;39527;-85
2021/10/10 09:00:49;;;;;;;4.07;3.03;;;;;;;25.52;27.07;100127.44;5111990;27;40692;-85
2021/10/10 09:03:44;;;;;;;3.73;3.03;;;;;;;24.23;27.25;100166.72;5105433;27;42715;-84
2021/10/10 09:06:12;;;;;;;4.77;3.13;;;;;;;23.41;28.62;100152.19;5104176;27;41817;-85
2021/10/10 09:08:41;;;;;;;3.93;3.33;;;;;;;23.40;29.18;100132.41;5125712;27;39038;-85
2021/10/10 09:11:11;;;;;;;4.43;2.80;;;;;;;22.99;29.58;100136.38;5119016;27;42100;-84
2021/10/10 09:14:01;;;;;;;3.87;2.70;;;;;;;22.35;28.35;100126.06;5105428;27;41685;-85
2021/10/10 09:16:39;;;;;;;4.00;3.03;;;;;;;21.60;29.28;100141.84;5125615;27;41188;-87
2021/10/10 09:19:28;;;;;;;5.60;3.40;;;;;;;20.87;30.95;100132.88;5115264;27;39276;-81
2021/10/10 09:22:00;;;;;;;4.20;3.10;;;;;;;20.15;32.19;100126.38;5139958;27;40577;-84
2021/10/10 09:24:28;;;;;;;6.17;3.73;;;;;;;19.47;33.35;100125.53;5118356;27;41701;-83
2021/10/10 09:26:56;;;;;;;5.27;3.63;;;;;;;18.97;34.18;100110.66;5145897;27;41909;-82
2021/10/10 09:29:35;;;;;;;5.73;3.60;;;;;;;18.69;35.57;100101.19;5115632;27;38475;-82
2021/10/10 09:32:09;;;;;;;6.20;3.87;;;;;;;18.33;35.70;100093.19;5120642;27;40832;-82
2021/10/10 09:34:37;;;;;;;4.67;3.20;;;;;;;17.89;36.54;100078.59;5125039;27;42818;-83
2021/10/10 09:37:07;;;;;;;4.60;3.43;;;;;;;17.67;37.17;100078.44;5113219;27;42635;-81
2021/10/10 09:39:37;;;;;;;5.70;2.93;;;;;;;17.45;37.87;100085.28;5141536;27;39103;-81
2021/10/10 09:42:06;;;;;;;5.03;3.30;;;;;;;17.28;38.54;100076.75;5136566;27;41923;-80
2021/10/10 09:44:47;;;;;;;4.20;2.93;;;;;;;17.14;38.42;100075.06;5111773;27;43564;-82
2021/10/10 09:47:17;;;;;;;4.10;2.93;;;;;;;16.94;38.97;100062.22;5125429;27;41640;-80
2021/10/10 09:49:45;;;;;;;4.80;3.57;;;;;;;16.78;38.90;100070.44;5141465;27;38919;-80
2021/10/10 09:52:15;;;;;;;3.70;3.03;;;;;;;16.56;39.78;100040.75;5157577;27;43475;-82
2021/10/10 09:54:52;;;;;;;4.33;2.80;;;;;;;16.57;40.47;100048.63;5183058;27;44162;-82
2021/10/10 09:57:21;;;;;;;4.70;3.30;;;;;;;16.43;40.66;100040.72;5133040;27;42781;-82
2021/10/10 09:59:50;;;;;;;3.33;2.90;;;;;;;16.49;41.14;100050.97;5149824;27;40565;-83
2021/10/10 10:02:18;;;;;;;5.03;3.40;;;;;;;16.64;40.26;100057.16;5144616;27;41645;-81
2021/10/10 10:04:47;;;;;;;4.20;2.87;;;;;;;16.73;40.09;100048.47;5123850;27;41725;-82
2021/10/10 10:07:17;;;;;;;5.57;3.40;;;;;;;16.91;39.31;100033.84;5133616;27;42020;-83
2021/10/10 10:09:50;;;;;;;12.93;7.30;;;;;;;17.36;39.23;100059.19;5125032;27;40840;-84
2021/10/10 10:12:19;;;;;;;5.57;3.57;;;;;;;17.49;38.81;100043.94;5126429;27;42238;-82
2021/10/10 10:14:51;;;;;;;4.00;3.17;;;;;;;18.24;38.07;100025.88;5119016;27;41339;-83
2021/10/10 10:17:22;;;;;;;5.37;3.37;;;;;;;18.91;37.96;100061.00;5114962;27;42082;-83
2021/10/10 10:19:50;;;;;;;7.87;3.53;;;;;;;19.42;36.84;100060.53;5113942;27;40205;-82
2021/10/10 10:22:19;;;;;;;4.20;2.90;;;;;;;19.99;36.37;100062.22;5108893;27;41886;-82
2021/10/10 10:24:47;;;;;;;4.77;3.00;;;;;;;20.41;35.90;100063.19;5117315;27;42933;-82
2021/10/10 10:27:16;;;;;;;4.37;2.93;;;;;;;21.02;34.28;100058.81;5113148;27;41181;-83
2021/10/10 10:29:47;;;;;;;3.77;2.80;;;;;;;21.23;35.70;100055.28;5104887;27;38977;-83
2021/10/10 10:32:17;;;;;;;3.57;3.20;;;;;;;21.25;34.22;100058.69;5140378;27;41883;-85
2021/10/10 10:34:58;;;;;;;5.60;3.83;;;;;;;21.80;32.56;100070.81;5113195;27;43092;-84
2021/10/10 10:37:53;;;;;;;4.43;3.87;;;;;;;22.02;32.61;100069.75;5080913;27;40932;-84
2021/10/10 10:40:33;;;;;;;5.30;3.30;;;;;;;21.91;32.79;100067.16;5112562;27;39773;-85
2021/10/10 10:43:04;;;;;;;7.67;5.83;;;;;;;22.45;32.51;100054.03;5113410;27;41810;-84
2021/10/10 10:45:36;;;;;;;4.87;3.90;;;;;;;23.25;31.48;100061.75;5102076;27;42068;-84
2021/10/10 10:48:08;;;;;;;4.73;3.00;;;;;;;24.49;29.83;100084.75;5134454;27;43205;-83
2021/10/10 10:50:39;;;;;;;4.37;3.37;;;;;;;25.99;26.44;100104.28;5113604;27;40070;-85
2021/10/10 10:53:08;;;;;;;5.70;4.00;;;;;;;26.62;27.05;100084.75;5129354;27;41821;-84
2021/10/10 10:55:38;;;;;;;4.70;3.70;;;;;;;27.50;27.38;100095.75;5094793;27;42534;-83
2021/10/10 10:58:13;;;;;;;4.17;3.73;;;;;;;28.06;25.45;100092.00;5095867;27;42564;-84
2021/10/10 11:00:42;;;;;;;4.67;3.43;;;;;;;28.04;23.87;100118.56;5095584;27;40128;-84
2021/10/10 11:03:13;;;;;;;3.47;3.13;;;;;;;28.60;22.71;100130.16;5111997;27;41304;-83
2021/10/10 11:05:52;;;;;;;4.07;3.60;;;;;;;29.21;22.11;100109.22;5095993;27;42089;-83
2021/10/10 11:08:43;;;;;;;4.00;3.60;;;;;;;29.57;22.32;100112.97;5122162;27;43115;-84
2021/10/10 11:11:16;;;;;;;3.10;2.80;;;;;;;29.94;21.51;100127.56;5099005;27;41664;-81
2021/10/10 11:13:46;;;;;;;3.93;3.53;;;;;;;30.62;21.60;100099.00;5123411;27;41930;-84
2021/10/10 11:16:16;;;;;;;5.17;3.53;;;;;;;31.34;21.26;100112.50;5102101;27;42841;-84
2021/10/10 11:18:59;;;;;;;4.07;3.50;;;;;;;31.41;21.22;100111.50;5116224;27;42492;-83
2021/10/10 11:21:31;;;;;;;5.87;3.13;;;;;;;30.94;21.52;100097.59;5099586;27;38999;-81
2021/10/10 11:24:01;;;;;;;3.27;2.97;;;;;;;30.07;21.35;100097.72;5122128;27;41341;-82
2021/10/10 11:26:30;;;;;;;4.20;3.43;;;;;;;30.30;21.21;100101.16;5099739;27;43466;-84
2021/10/10 11:29:00;;;;;;;4.73;2.97;;;;;;;31.81;18.91;100113.66;5125227;27;42159;-84
2021/10/10 11:31:30;;;;;;;3.20;2.90;;;;;;;33.23;17.84;100104.38;5121910;27;41382;-83
2021/10/10 11:34:01;;;;;;;5.73;5.00;;;;;;;34.78;16.90;100114.44;5100731;27;40868;-83
2021/10/10 11:36:35;;;;;;;5.13;4.37;;;;;;;35.76;16.51;100096.22;5104371;27;41635;-82
2021/10/10 11:39:06;;;;;;;4.40;3.33;;;;;;;36.67;15.17;100096.09;5099792;27;42092;-82
2021/10/10 11:41:38;;;;;;;3.83;3.53;;;;;;;37.84;14.10;100100.91;5097803;27;39799;-82
2021/10/10 11:44:07;;;;;;;3.88;3.47;;;;;;;38.99;13.34;100120.13;5108804;27;42273;-83
2021/10/10 11:46:45;;;;;;;3.63;3.33;;;;;;;40.02;13.04;100114.00;5106986;27;41719;-84
2021/10/10 11:49:37;;;;;;;4.20;3.90;;;;;;;40.85;12.83;100092.44;5094418;27;41197;-84
2021/10/10 11:52:07;;;;;;;3.45;3.15;;;;;;;41.63;11.65;100101.16;5092761;27;39236;-84
2021/10/10 11:54:38;;;;;;;3.28;3.03;;;;;;;41.84;11.34;100083.44;5097760;27;42187;-83
2021/10/10 11:57:08;;;;;;;3.40;3.10;;;;;;;41.41;11.37;100048.41;5114380;27;43112;-84
2021/10/10 11:59:35;;;;;;;3.72;3.20;;;;;;;40.98;11.16;100066.16;5101696;27;40922;-85
2021/10/10 12:02:04;;;;;;;3.72;3.40;;;;;;;40.72;11.52;100079.81;5101139;27;39605;-84
2021/10/10 12:04:33;;;;;;;3.28;2.95;;;;;;;40.52;11.14;100080.44;5098283;27;41116;-84
2021/10/10 12:07:01;;;;;;;3.20;2.90;;;;;;;40.53;11.39;100046.03;5111164;27;42451;-84
2021/10/10 12:09:29;;;;;;;3.50;3.20;;;;;;;41.28;10.51;100080.31;5092834;27;42843;-84
2021/10/10 12:12:05;;;;;;;3.05;2.85;;;;;;;42.12;10.98;100079.41;5115027;27;40197;-84
2021/10/10 12:14:44;;;;;;;3.40;3.10;;;;;;;42.58;10.23;100074.81;5116101;27;42258;-84
2021/10/10 12:17:27;;;;;;;3.13;2.78;;;;;;;42.65;9.73;100053.94;5097967;27;43931;-85
2021/10/10 12:19:57;;;;;;;2.72;2.50;;;;;;;42.98;9.54;100087.97;5100603;27;41215;-84
2021/10/10 12:22:26;;;;;;;3.10;2.80;;;;;;;43.14;9.33;100072.06;5096352;27;39939;-85
2021/10/10 12:24:54;;;;;;;3.05;2.85;;;;;;;43.26;9.03;100069.84;5112587;27;42680;-85
2021/10/10 12:27:27;;;;;;;3.08;2.80;;;;;;;43.31;9.10;100059.50;5092277;27;42148;-85
2021/10/10 12:29:57;;;;;;;3.58;2.70;;;;;;;43.35;9.20;100062.56;5100603;27;41551;-84
2021/10/10 12:32:26;;;;;;;2.80;2.55;;;;;;;43.26;9.18;100055.91;5100697;27;41654;-84
2021/10/10 12:35:16;;;;;;;6.85;6.15;;;;;;;43.16;9.57;100027.97;5094648;27;41730;-84
2021/10/10 12:37:52;;;;;;;5.18;4.65;;;;;;;43.07;9.45;100021.31;5097222;27;43139;-84
2021/10/10 12:40:25;;;;;;;3.50;3.15;;;;;;;41.32;10.03;100042.50;5092235;27;41337;-85
2021/10/10 12:42:53;;;;;;;3.03;2.83;;;;;;;40.72;10.29;100027.03;5109227;27;40242;-84
2021/10/10 12:45:32;;;;;;;3.97;2.90;;;;;;;40.96;10.21;100023.88;5089965;27;40837;-86
2021/10/10 12:48:09;;;;;;;3.08;2.83;;;;;;;41.45;9.83;100024.50;5093628;27;42047;-84
2021/10/10 12:50:50;;;;;;;3.55;3.25;;;;;;;41.57;10.09;100014.88;5108216;27;42228;-82
2021/10/10 12:53:27;;;;;;;2.97;2.75;;;;;;;41.82;10.48;100016.91;5091689;27;39637;-85
2021/10/10 12:58:58;;;;;;;3.25;3.03;;;;;;;41.72;9.29;100028.00;5095888;27;42723;-85
2021/10/10 13:01:27;;;;;;;3.45;3.10;;;;;;;41.45;9.96;100003.09;5079611;27;41028;-85
2021/10/10 13:03:56;;;;;;;3.03;2.80;;;;;;;41.34;9.78;99998.59;5093419;27;38940;-84
2021/10/10 13:06:25;;;;;;;2.80;2.60;;;;;;;41.39;10.25;99998.63;5090592;27;41442;-83
2021/10/10 13:08:54;;;;;;;3.00;2.70;;;;;;;41.40;10.27;100014.22;5095691;27;41886;-84
2021/10/10 13:11:25;;;;;;;3.50;3.20;;;;;;;41.25;10.33;100005.78;5111656;27;41530;-84
2021/10/10 13:13:53;;;;;;;3.22;3.03;;;;;;;41.20;10.69;100000.16;5096201;27;38715;-85
2021/10/10 13:16:21;;;;;;;3.78;2.63;;;;;;;41.06;10.55;100007.28;5094860;27;42219;-84
2021/10/10 13:18:49;;;;;;;3.53;2.92;;;;;;;40.80;10.95;99976.53;5095304;27;43679;-85
2021/10/10 13:21:17;;;;;;;3.47;3.17;;;;;;;40.79;10.85;99991.53;5107580;27;42565;-84
2021/10/10 13:23:46;;;;;;;4.18;3.35;;;;;;;40.47;11.02;99976.78;5131092;27;40058;-83
2021/10/10 13:26:14;;;;;;;3.27;3.00;;;;;;;40.43;11.26;99981.22;5095081;27;40543;-84
2021/10/10 13:28:41;;;;;;;2.92;2.65;;;;;;;40.30;11.30;99976.94;5094465;27;41877;-83
2021/10/10 13:31:09;;;;;;;3.30;3.00;;;;;;;40.15;11.32;99980.38;5100610;27;41153;-84
2021/10/10 13:33:39;;;;;;;2.90;2.70;;;;;;;40.01;11.48;99970.78;5097069;27;39808;-85
2021/10/10 13:36:09;;;;;;;2.83;2.53;;;;;;;39.95;11.06;99999.56;5101302;27;41078;-84
2021/10/10 13:38:37;;;;;;;3.20;2.90;;;;;;;39.63;11.49;99974.47;5109710;27;43504;-83
2021/10/10 13:41:06;;;;;;;2.83;2.63;;;;;;;39.44;11.53;99971.16;5092833;27;42649;-83
2021/10/10 13:43:34;;;;;;;3.10;2.80;;;;;;;39.21;11.39;99988.00;5118995;27;39730;-84
2021/10/10 13:46:06;;;;;;;2.80;2.60;;;;;;;39.05;11.57;99980.59;5102920;27;41193;-86
2021/10/10 13:48:36;;;;;;;2.80;2.57;;;;;;;38.89;11.88;99978.66;5094711;27;42744;-84
2021/10/10 13:51:06;;;;;;;3.30;3.10;;;;;;;38.53;11.38;99978.09;5094220;27;41340;-85
2021/10/10 13:53:34;;;;;;;3.13;2.83;;;;;;;38.20;11.84;99967.78;5101605;27;39035;-83
2021/10/10 13:56:03;;;;;;;3.40;3.10;;;;;;;37.95;11.90;99965.38;5104245;27;41317;-85
2021/10/10 13:58:32;;;;;;;3.40;3.03;;;;;;;37.82;12.22;99973.97;5098983;27;42005;-85
2021/10/10 14:01:00;;;;;;;3.73;2.67;;;;;;;37.56;12.21;99977.25;5134706;27;42482;-84
2021/10/10 14:03:29;;;;;;;3.13;2.73;;;;;;;36.67;12.21;99924.09;5101225;27;39486;-84
2021/10/10 14:05:58;;;;;;;3.40;2.57;;;;;;;36.48;12.92;99963.91;5099208;27;41235;-83
2021/10/10 14:08:26;;;;;;;3.03;2.57;;;;;;;36.03;12.99;99955.25;5093942;27;42608;-83
2021/10/10 14:10:55;;;;;;;3.07;2.77;;;;;;;35.87;13.36;99974.13;5099243;27;41301;-84
2021/10/10 14:13:23;;;;;;;2.90;2.20;;;;;;;35.74;13.49;99967.91;5109421;27;39693;-84
2021/10/10 14:15:53;;;;;;;2.77;2.57;;;;;;;35.30;13.30;99945.16;5117795;27;41090;-84
2021/10/10 14:18:22;;;;;;;2.47;2.27;;;;;;;35.09;13.41;99954.72;5107883;27;41692;-84
2021/10/10 14:20:50;;;;;;;2.57;2.13;;;;;;;34.97;13.79;99970.31;5093361;27;41936;-83
2021/10/10 14:23:18;;;;;;;2.63;2.43;;;;;;;33.62;13.64;99960.63;5077448;27;38909;-84
2021/10/10 14:25:46;;;;;;;5.33;2.50;;;;;;;32.11;15.17;99950.63;5115421;27;41878;-83
2021/10/10 14:28:14;;;;;;;2.30;2.10;;;;;;;30.82;15.97;99946.84;5110258;27;42580;-83
2021/10/10 14:30:41;;;;;;;2.53;2.33;;;;;;;29.77;16.48;99951.28;5101334;27;42255;-84
2021/10/10 14:33:10;;;;;;;2.10;1.87;;;;;;;28.77;17.88;99932.69;5118530;27;40284;-83
2021/10/10 14:35:38;;;;;;;3.03;2.50;;;;;;;27.92;18.71;99932.06;5120391;27;42443;-83
2021/10/10 14:38:06;;;;;;;2.37;2.03;;;;;;;26.82;18.93;99879.53;5116719;27;43188;-84
2021/10/10 14:40:36;;;;;;;2.63;2.40;;;;;;;26.28;19.53;99907.47;5094481;27;42014;-83
2021/10/10 14:43:05;;;;;;;2.30;2.10;;;;;;;25.73;20.29;99913.53;5115964;27;40093;-83
2021/10/10 14:45:35;;;;;;;1.97;1.73;;;;;;;25.10;21.49;99889.56;5097342;27;41546;-82
2021/10/10 14:48:10;;;;;;;2.47;2.27;;;;;;;24.60;22.05;99879.47;5094596;27;42099;-83
2021/10/10 14:50:40;;;;;;;2.97;1.90;;;;;;;24.26;22.38;99895.69;5091524;27;41320;-84
2021/10/10 14:53:09;;;;;;;3.43;2.50;;;;;;;23.79;23.08;99886.97;5089346;27;40116;-83
2021/10/10 14:55:37;;;;;;;3.63;2.37;;;;;;;23.41;23.71;99885.38;5099002;27;41251;-83
2021/10/10 14:58:06;;;;;;;4.37;2.50;;;;;;;22.91;23.79;99864.19;5084570;27;42050;-84
2021/10/10 15:00:34;;;;;;;3.77;1.77;;;;;;;22.64;24.34;99876.78;5084060;27;42598;-83
2021/10/10 15:03:01;;;;;;;4.20;2.70;;;;;;;22.20;24.94;99869.25;5109411;27;40053;-83
2021/10/10 15:05:29;;;;;;;5.10;3.00;;;;;;;21.86;24.81;99870.69;5102625;27;40663;-83
2021/10/10 15:07:58;;;;;;;3.23;2.47;;;;;;;21.49;25.70;99854.38;5094044;27;43137;-84
2021/10/10 15:10:26;;;;;;;3.73;2.50;;;;;;;21.11;25.87;99858.69;5107610;27;41178;-84
2021/10/10 15:12:54;;;;;;;3.80;2.27;;;;;;;20.76;26.72;99847.53;5110342;27;39343;-83
2021/10/10 15:15:27;;;;;;;2.23;1.80;;;;;;;20.41;27.27;99838.00;5101025;27;41024;-84
2021/10/10 15:17:56;;;;;;;2.47;2.00;;;;;;;20.27;27.29;99854.50;5102440;27;41601;-84
2021/10/10 15:20:23;;;;;;;2.60;2.03;;;;;;;19.98;27.07;99858.81;5100694;27;41900;-84
2021/10/10 15:22:52;;;;;;;2.37;1.97;;;;;;;19.66;27.17;99854.31;5111358;27;40784;-83
2021/10/10 15:25:21;;;;;;;2.67;2.07;;;;;;;19.32;27.55;99847.34;5104661;27;41852;-83
2021/10/10 15:27:48;;;;;;;2.70;1.80;;;;;;;19.06;28.17;99845.94;5098174;27;41869;-83
2021/10/10 15:30:16;;;;;;;2.67;2.07;;;;;;;18.90;28.72;99847.22;5097909;27;41137;-83
2021/10/10 15:32:44;;;;;;;3.17;1.77;;;;;;;18.71;29.59;99843.44;5100957;27;39758;-83
2021/10/10 15:35:12;;;;;;;2.90;1.80;;;;;;;18.37;29.77;99831.84;5098146;27;40847;-82
2021/10/10 15:37:40;;;;;;;2.67;1.90;;;;;;;18.09;29.93;99825.97;5121644;27;42647;-81
2021/10/10 15:40:09;;;;;;;2.53;1.80;;;;;;;17.82;30.01;99814.69;5113685;27;42380;-82
2021/10/10 15:42:38;;;;;;;3.20;2.07;;;;;;;17.71;30.28;99817.34;5087663;28;38175;-83
2021/10/10 15:45:07;;;;;;;2.97;2.23;;;;;;;17.58;30.66;99823.59;5114713;27;41677;-82
2021/10/10 15:47:36;;;;;;;2.03;1.70;;;;;;;17.45;30.67;99821.97;5105088;27;42897;-82
2021/10/10 15:50:04;;;;;;;3.03;2.03;;;;;;;17.24;30.99;99803.03;5097267;27;42520;-84
2021/10/10 15:52:32;;;;;;;1.47;1.37;;;;;;;17.07;31.49;99801.59;5103259;27;39011;-82
2021/10/10 15:54:59;;;;;;;2.73;2.00;;;;;;;16.90;31.89;99801.16;5096686;27;42074;-82
2021/10/10 15:57:27;;;;;;;3.47;2.10;;;;;;;16.71;32.05;99794.44;5103287;27;43158;-82
2021/10/10 15:59:57;;;;;;;2.53;2.23;;;;;;;16.58;32.00;99798.94;5137100;27;42204;-83
2021/10/10 16:02:25;;;;;;;1.60;1.50;;;;;;;16.36;32.33;99782.75;5102953;27;40157;-82
2021/10/10 16:04:52;;;;;;;2.27;1.73;;;;;;;16.30;33.02;99794.75;5098361;27;41845;-83
2021/10/10 16:07:20;;;;;;;27.63;16.17;;;;;;;16.15;32.71;99794.00;5102177;27;43473;-82
2021/10/10 16:09:47;;;;;;;8.83;3.97;;;;;;;16.03;33.66;99781.50;5099928;27;41166;-82
2021/10/10 16:12:15;;;;;;;5.20;2.30;;;;;;;15.89;33.78;99773.59;5110755;27;41331;-82
2021/10/10 16:14:42;;;;;;;2.63;2.03;;;;;;;15.73;33.85;99764.94;5113420;27;40372;-82
2021/10/10 16:17:11;;;;;;;2.60;1.60;;;;;;;15.75;34.19;99781.72;5118314;27;42527;-82
2021/10/10 16:19:39;;;;;;;4.00;2.50;;;;;;;15.65;34.29;99783.31;5098039;27;41621;-82
2021/10/10 16:22:07;;;;;;;2.40;2.00;;;;;;;15.56;34.30;99795.47;5119151;27;39054;-82
2021/10/10 16:24:36;;;;;;;2.83;1.90;;;;;;;15.48;34.94;99799.56;5104845;27;40880;-82
2021/10/10 16:27:04;;;;;;;2.40;2.13;;;;;;;15.40;34.63;99803.63;5079995;27;41709;-81
2021/10/10 16:29:31;;;;;;;2.73;1.50;;;;;;;15.34;35.07;99798.69;5108231;27;42534;-82
2021/10/10 16:31:59;;;;;;;2.47;1.80;;;;;;;15.24;35.42;99797.59;5099049;27;39136;-82
2021/10/10 16:34:33;;;;;;;2.87;2.07;;;;;;;15.21;35.76;99803.13;5098034;27;40827;-83
2021/10/10 16:37:07;;;;;;;2.30;1.70;;;;;;;15.02;35.97;99787.50;5120497;27;42834;-83
2021/10/10 16:39:38;;;;;;;2.03;1.60;;;;;;;14.99;36.74;99798.34;5120512;27;43690;-83
2021/10/10 16:42:13;;;;;;;4.13;2.10;;;;;;;14.74;37.07;99785.78;5102851;27;39850;-83
2021/10/10 16:44:40;;;;;;;2.10;1.60;;;;;;;14.65;37.44;99802.38;5099002;27;41161;-83
2021/10/10 16:47:10;;;;;;;2.73;2.27;;;;;;;14.48;37.28;99801.72;5118974;27;43071;-84
2021/10/10 16:49:40;;;;;;;2.87;1.83;;;;;;;14.32;37.90;99796.50;5113012;27;42407;-83
2021/10/10 16:52:08;;;;;;;1.80;1.67;;;;;;;13.97;38.43;99774.72;5111578;27;39049;-84
2021/10/10 16:54:37;;;;;;;3.10;2.17;;;;;;;14.00;38.68;99811.78;5096739;27;41932;-83
2021/10/10 16:57:05;;;;;;;3.23;2.43;;;;;;;13.85;38.74;99813.56;5101834;27;43575;-81
2021/10/10 16:59:33;;;;;;;2.67;2.07;;;;;;;13.72;38.85;99801.97;5093210;27;41159;-83
2021/10/10 17:02:00;;;;;;;4.23;2.10;;;;;;;13.61;39.17;99810.59;5091323;27;39122;-82
2021/10/10 17:04:29;;;;;;;2.43;1.97;;;;;;;13.48;39.26;99803.41;5113202;27;41520;-83
2021/10/10 17:06:58;;;;;;;3.40;2.10;;;;;;;13.34;39.93;99800.75;5129274;27;43319;-82
2021/10/10 17:09:25;;;;;;;2.67;2.30;;;;;;;13.09;40.07;99788.84;5114646;27;42675;-83
2021/10/10 17:11:53;;;;;;;3.43;1.90;;;;;;;13.04;40.21;99814.81;5107946;27;39606;-83
2021/10/10 17:14:20;;;;;;;3.93;1.90;;;;;;;12.92;40.26;99810.22;5111862;27;41598;-82
2021/10/10 17:16:50;;;;;;;4.33;2.20;;;;;;;12.71;40.71;99801.66;5111842;27;42829;-83
2021/10/10 17:19:20;;;;;;;2.83;2.00;;;;;;;12.62;41.08;99809.25;5134073;27;42007;-82
2021/10/10 17:21:50;;;;;;;3.63;2.60;;;;;;;12.53;41.29;99823.94;5079937;27;40554;-82
2021/10/10 17:24:20;;;;;;;3.10;2.00;;;;;;;12.36;41.25;99819.56;5113266;27;42611;-82
2021/10/10 17:26:49;;;;;;;3.67;2.40;;;;;;;12.28;41.54;99823.53;5119573;27;42715;-83
2021/10/10 17:29:18;;;;;;;3.57;2.53;;;;;;;12.14;41.81;99817.19;5132641;27;42168;-83
2021/10/10 17:31:48;;;;;;;2.33;2.00;;;;;;;12.06;42.06;99827.34;5095270;27;39580;-82
2021/10/10 17:34:16;;;;;;;3.10;2.40;;;;;;;11.99;42.53;99831.25;5105974;27;42057;-79
2021/10/10 17:36:44;;;;;;;4.87;2.73;;;;;;;11.85;42.53;99817.88;5087929;28;42096;-77
2021/10/10 17:39:11;;;;;;;3.97;2.40;;;;;;;11.83;42.95;99823.25;5129360;27;42710;-78
2021/10/10 17:41:40;;;;;;;4.63;2.33;;;;;;;11.75;43.17;99824.53;5113976;27;38484;-77
2021/10/10 17:44:09;;;;;;;2.50;2.00;;;;;;;11.60;44.38;99805.00;5106089;27;41500;-77
2021/10/10 17:46:38;;;;;;;3.67;2.63;;;;;;;11.54;44.61;99813.25;5144695;27;43616;-76
2021/10/10 17:49:06;;;;;;;3.00;2.00;;;;;;;11.30;45.50;99780.03;5141526;27;42012;-76
2021/10/10 17:51:35;;;;;;;3.00;2.00;;;;;;;11.39;45.89;99808.72;5120576;27;39680;-77
2021/10/10 17:54:03;;;;;;;3.33;2.27;;;;;;;11.27;44.89;99812.00;5103023;27;40605;-76
2021/10/10 17:56:32;;;;;;;2.40;1.83;;;;;;;11.23;44.74;99821.06;5127139;27;43444;-77
2021/10/10 17:59:05;;;;;;;4.30;1.83;;;;;;;11.12;44.45;99830.41;5093566;27;42361;-76
2021/10/10 18:01:51;;;;;;;3.97;1.93;;;;;;;11.03;44.53;99830.81;5137746;27;40031;-77